Time;durP1;ratioP1;P1;durP2;ratioP2;P2;SDS_P1;SDS_P2;PMS_P1;PMS_P2;Temp;Humidity;BMP_temperature;BMP_pressure;BME280_temperature;BME280_humidity;BME280_pressure;Samples;Min_cycle;Max_cycle;Signal;HPM_P1;HPM_P2
2022/08/23 00:01:29;;;;;;;14.55;8.65;;;15.70;99.90;;;;;;5060197;28;20646;-61
2022/08/23 00:03:58;;;;;;;12.75;9.13;;;15.70;99.90;;;;;;5043769;28;20056;-61
2022/08/23 00:06:24;;;;;;;14.35;8.60;;;15.70;99.90;;;;;;5048575;28;20633;-62
2022/08/23 00:08:51;;;;;;;10.63;7.22;;;15.70;99.90;;;;;;5061476;28;20569;-61
2022/08/23 00:11:30;;;;;;;9.68;6.90;;;15.70;99.90;;;;;;5059750;28;20126;-62
2022/08/23 00:13:58;;;;;;;10.38;7.05;;;15.70;99.90;;;;;;5065641;28;20037;-60
2022/08/23 00:16:24;;;;;;;11.60;7.47;;;15.70;99.90;;;;;;5058002;28;20041;-61
2022/08/23 00:18:49;;;;;;;11.85;7.20;;;15.60;99.90;;;;;;5064748;28;20702;-62
2022/08/23 00:21:15;;;;;;;14.32;7.88;;;15.60;99.90;;;;;;5063769;28;20047;-61
2022/08/23 00:23:41;;;;;;;12.32;8.10;;;15.50;99.90;;;;;;5065185;28;20039;-62
2022/08/23 00:26:07;;;;;;;12.60;6.90;;;15.50;99.90;;;;;;5062363;28;20037;-61
2022/08/23 00:28:33;;;;;;;9.63;7.22;;;15.50;99.90;;;;;;5067287;28;20644;-62
2022/08/23 00:30:58;;;;;;;11.82;6.75;;;15.50;99.90;;;;;;5063140;28;20036;-62
2022/08/23 00:33:25;;;;;;;15.75;7.88;;;15.40;99.90;;;;;;5070307;28;20032;-61
2022/08/23 00:35:51;;;;;;;12.23;8.18;;;15.40;99.90;;;;;;5056778;28;20029;-61
2022/08/23 00:38:17;;;;;;;12.40;7.88;;;15.40;99.90;;;;;;5067825;28;20047;-61
2022/08/23 00:40:46;;;;;;;13.50;8.43;;;15.40;99.90;;;;;;5067389;28;20036;-61
2022/08/23 00:49:16;;;;;;;13.90;8.57;;;15.30;99.90;;;;;;5065627;28;20501;-61
2022/08/23 00:51:53;;;;;;;15.18;8.40;;;15.20;99.90;;;;;;5050791;28;20061;-61
2022/08/23 00:54:21;;;;;;;13.57;8.07;;;15.20;99.90;;;;;;5067749;28;20124;-62
2022/08/23 00:56:49;;;;;;;13.13;9.15;;;15.20;99.90;;;;;;5036672;28;20052;-61
2022/08/23 00:59:15;;;;;;;15.48;9.60;;;15.10;99.90;;;;;;5067485;28;20040;-61
2022/08/23 01:01:42;;;;;;;13.45;8.57;;;15.20;99.90;;;;;;5057364;28;20108;-61
2022/08/23 01:04:10;;;;;;;12.10;8.07;;;15.20;99.90;;;;;;5056495;28;20112;-61
2022/08/23 01:07:02;;;;;;;15.55;8.65;;;15.10;99.90;;;;;;5056620;28;20061;-62
2022/08/23 01:09:28;;;;;;;15.32;8.98;;;15.10;99.90;;;;;;5055123;28;20094;-61
2022/08/23 01:12:05;;;;;;;19.15;9.07;;;15.10;99.90;;;;;;5059330;28;20029;-62
2022/08/23 01:14:36;;;;;;;14.63;8.82;;;15.10;99.90;;;;;;5057970;28;20037;-61
2022/08/23 01:17:13;;;;;;;11.77;8.30;;;15.10;99.90;;;;;;5057383;28;20075;-61
2022/08/23 01:19:47;;;;;;;14.50;8.88;;;15.10;99.90;;;;;;5057826;28;20503;-61
2022/08/23 01:22:26;;;;;;;13.18;8.95;;;15.10;99.90;;;;;;5058888;28;20396;-61
2022/08/23 01:24:53;;;;;;;15.63;9.63;;;15.00;99.90;;;;;;5063287;28;20098;-60
2022/08/23 01:27:19;;;;;;;14.20;9.32;;;15.00;99.90;;;;;;5066144;28;20356;-61
2022/08/23 01:29:45;;;;;;;17.63;9.20;;;14.90;99.90;;;;;;5061786;28;20049;-61
2022/08/23 01:32:11;;;;;;;12.27;9.05;;;14.90;99.90;;;;;;5057750;28;20404;-61
2022/08/23 01:34:37;;;;;;;13.50;9.88;;;14.90;99.90;;;;;;5059348;28;20079;-61
2022/08/23 01:37:07;;;;;;;12.00;9.13;;;14.90;99.90;;;;;;5063315;28;20427;-61
2022/08/23 01:39:34;;;;;;;11.52;8.48;;;14.90;99.90;;;;;;5054641;28;20033;-62
2022/08/23 01:41:59;;;;;;;13.00;10.02;;;14.80;99.90;;;;;;5058254;28;20045;-61
2022/08/23 01:44:25;;;;;;;12.80;9.32;;;14.80;99.90;;;;;;5070641;28;20106;-62
2022/08/23 01:46:52;;;;;;;14.93;9.85;;;14.80;99.90;;;;;;5079344;28;20033;-61
2022/08/23 01:49:18;;;;;;;15.23;9.60;;;14.90;99.90;;;;;;5081885;28;20044;-62
2022/08/23 01:51:44;;;;;;;13.18;9.38;;;14.80;99.90;;;;;;5077892;28;20111;-62
2022/08/23 01:54:10;;;;;;;11.68;8.50;;;14.80;99.90;;;;;;5073002;28;20028;-61
2022/08/23 01:56:37;;;;;;;12.45;9.07;;;14.80;99.90;;;;;;5077630;28;20093;-62
2022/08/23 01:59:03;;;;;;;11.98;8.68;;;14.70;99.90;;;;;;5081855;28;20039;-62
2022/08/23 02:01:29;;;;;;;12.57;8.65;;;14.70;99.90;;;;;;5080419;28;20373;-61
2022/08/23 02:03:55;;;;;;;13.38;8.75;;;14.70;99.90;;;;;;5079761;28;20468;-61
2022/08/23 02:06:20;;;;;;;15.30;9.25;;;14.70;99.90;;;;;;5080342;28;20040;-62
2022/08/23 02:09:01;;;;;;;14.10;9.10;;;14.70;99.90;;;;;;5076892;28;20043;-61
2022/08/23 02:11:33;;;;;;;11.57;8.48;;;14.70;99.90;;;;;;5074721;28;20036;-61
2022/08/23 02:14:02;;;;;;;15.50;8.60;;;14.70;99.90;;;;;;5082343;28;20123;-62
2022/08/23 02:16:36;;;;;;;12.05;8.52;;;14.60;99.90;;;;;;5086476;28;20040;-62
2022/08/23 02:19:05;;;;;;;14.93;9.43;;;14.60;99.90;;;;;;5069319;28;20089;-62
2022/08/23 02:21:31;;;;;;;14.27;8.55;;;14.60;99.90;;;;;;5071440;28;20032;-62
2022/08/23 02:24:19;;;;;;;12.38;8.48;;;14.60;99.90;;;;;;5065651;28;20047;-62
2022/08/23 02:26:48;;;;;;;13.70;8.90;;;14.50;99.90;;;;;;5079906;28;20044;-62
2022/08/23 02:29:16;;;;;;;12.88;8.30;;;14.50;99.90;;;;;;5080197;28;20472;-62
2022/08/23 02:31:43;;;;;;;13.60;9.38;;;14.50;99.90;;;;;;5083710;28;20388;-61
2022/08/23 02:34:10;;;;;;;18.48;8.80;;;14.50;99.90;;;;;;5080676;28;20445;-62
2022/08/23 02:36:36;;;;;;;13.00;9.48;;;14.50;99.90;;;;;;5084037;28;20036;-62
2022/08/23 02:39:03;;;;;;;10.48;7.90;;;14.40;99.90;;;;;;5076791;28;20051;-61
2022/08/23 02:41:30;;;;;;;16.77;10.85;;;14.40;99.90;;;;;;5059099;28;20048;-61
2022/08/23 02:43:56;;;;;;;13.48;9.98;;;14.30;99.90;;;;;;5081328;28;20032;-62
2022/08/23 02:46:22;;;;;;;17.27;10.88;;;14.30;99.90;;;;;;5085000;28;20374;-62
2022/08/23 02:48:48;;;;;;;12.98;9.30;;;14.30;99.90;;;;;;5078822;28;20585;-61
2022/08/23 02:51:15;;;;;;;12.70;8.10;;;14.30;99.90;;;;;;5078050;28;20031;-62
2022/08/23 02:53:41;;;;;;;10.23;7.50;;;14.30;99.90;;;;;;5082241;28;20055;-62
2022/08/23 02:56:07;;;;;;;10.40;6.13;;;14.30;99.90;;;;;;5070955;28;20162;-62
2022/08/23 02:58:33;;;;;;;9.00;6.40;;;14.30;99.90;;;;;;5076131;28;20044;-62
2022/08/23 03:00:59;;;;;;;15.85;6.95;;;14.30;99.90;;;;;;5076516;28;21050;-61
2022/08/23 03:03:25;;;;;;;147.88;12.00;;;14.20;99.90;;;;;;5074703;28;20472;-61
2022/08/23 03:05:52;;;;;;;48.55;8.85;;;14.20;99.90;;;;;;5080200;28;20059;-62
2022/08/23 03:08:19;;;;;;;10.80;8.25;;;14.20;99.90;;;;;;5081913;28;20131;-62
2022/08/23 03:10:46;;;;;;;13.43;8.35;;;14.10;99.90;;;;;;5075954;28;20036;-61
2022/08/23 03:13:12;;;;;;;10.57;8.63;;;14.10;99.90;;;;;;5088457;28;20040;-62
2022/08/23 03:15:39;;;;;;;10.27;7.57;;;14.10;99.90;;;;;;5079929;28;20037;-61
2022/08/23 03:18:06;;;;;;;13.43;7.80;;;14.10;99.90;;;;;;5080078;28;20117;-61
2022/08/23 03:20:32;;;;;;;13.65;8.77;;;14.10;99.90;;;;;;5080484;28;20044;-62
2022/08/23 03:22:58;;;;;;;10.10;8.23;;;14.10;99.90;;;;;;5084016;28;20094;-62
2022/08/23 03:25:24;;;;;;;10.27;8.13;;;14.10;99.90;;;;;;5087050;28;20055;-62
2022/08/23 03:27:50;;;;;;;10.95;8.57;;;14.00;99.90;;;;;;5082229;28;20040;-62
2022/08/23 03:30:15;;;;;;;9.52;8.50;;;13.90;99.90;;;;;;5087087;28;20123;-62
2022/08/23 03:32:41;;;;;;;10.23;8.13;;;13.90;99.90;;;;;;5091409;28;20029;-62
2022/08/23 03:35:08;;;;;;;10.68;8.82;;;13.90;99.90;;;;;;5086231;28;20032;-62
2022/08/23 03:37:53;;;;;;;9.38;7.32;;;13.90;99.90;;;;;;5075383;28;20035;-62
2022/08/23 03:40:19;;;;;;;9.23;7.70;;;13.90;99.90;;;;;;5055825;28;20048;-62
2022/08/23 03:42:45;;;;;;;11.65;8.18;;;13.90;99.90;;;;;;5067393;28;20391;-62
2022/08/23 03:45:11;;;;;;;10.43;7.70;;;13.90;99.90;;;;;;5083654;28;20060;-62
2022/08/23 03:47:37;;;;;;;51.53;9.43;;;13.90;99.90;;;;;;5082632;28;20147;-62
2022/08/23 03:50:03;;;;;;;10.80;8.75;;;13.80;99.90;;;;;;5086401;28;20167;-62
2022/08/23 03:52:28;;;;;;;8.70;7.22;;;13.80;99.90;;;;;;5072607;28;20028;-61
2022/08/23 03:54:54;;;;;;;12.80;8.65;;;13.80;99.90;;;;;;5083003;28;20097;-61
2022/08/23 03:57:19;;;;;;;10.23;7.80;;;13.70;99.90;;;;;;5081973;28;20126;-62
2022/08/23 03:59:47;;;;;;;10.70;8.68;;;13.60;99.90;;;;;;5073763;28;20040;-62
2022/08/23 04:02:14;;;;;;;10.68;8.60;;;13.60;99.90;;;;;;5084547;28;20033;-61
2022/08/23 04:04:40;;;;;;;14.55;9.80;;;13.60;99.90;;;;;;5087046;28;20031;-61
2022/08/23 04:07:06;;;;;;;10.95;8.90;;;13.60;99.90;;;;;;5076999;28;20037;-61
2022/08/23 04:09:32;;;;;;;10.63;8.80;;;13.60;99.90;;;;;;5083765;28;20373;-61
2022/08/23 04:11:57;;;;;;;10.82;8.07;;;13.60;99.90;;;;;;5076665;28;20472;-62
2022/08/23 04:14:23;;;;;;;8.70;7.78;;;13.50;99.90;;;;;;5083004;28;20059;-62
2022/08/23 04:16:49;;;;;;;9.88;8.18;;;13.40;99.90;;;;;;5082242;28;20033;-62
2022/08/23 04:19:15;;;;;;;14.93;8.10;;;13.40;99.90;;;;;;5073226;28;20112;-60
2022/08/23 04:21:47;;;;;;;13.40;9.68;;;13.40;99.90;;;;;;5077985;28;20040;-60
2022/08/23 04:24:13;;;;;;;12.18;9.32;;;13.40;99.90;;;;;;5073072;28;20044;-62
2022/08/23 04:26:40;;;;;;;12.85;9.13;;;13.40;99.90;;;;;;5083038;28;20071;-62
2022/08/23 04:29:06;;;;;;;13.52;9.10;;;13.40;99.90;;;;;;5057584;28;20044;-62
2022/08/23 04:31:32;;;;;;;9.63;7.75;;;13.40;99.90;;;;;;5086213;28;20408;-61
2022/08/23 04:33:58;;;;;;;8.55;6.35;;;13.30;99.90;;;;;;5080487;28;20420;-62
2022/08/23 04:36:24;;;;;;;8.45;6.78;;;13.40;99.90;;;;;;5088352;28;20028;-62
2022/08/23 04:38:50;;;;;;;13.25;7.68;;;13.40;99.90;;;;;;5086983;28;21984;-61
2022/08/23 04:44:01;;;;;;;9.90;7.57;;;13.30;99.90;;;;;;5087958;28;20055;-62
2022/08/23 04:46:26;;;;;;;11.05;7.47;;;13.30;99.90;;;;;;5058415;28;20056;-62
2022/08/23 04:48:53;;;;;;;9.73;8.25;;;13.20;99.90;;;;;;5057870;28;20045;-62
2022/08/23 04:51:18;;;;;;;12.45;8.95;;;13.30;99.90;;;;;;5059847;28;20116;-62
2022/08/23 04:53:44;;;;;;;8.70;7.60;;;13.30;99.90;;;;;;5039900;28;20516;-62
2022/08/23 04:56:10;;;;;;;11.32;7.75;;;13.30;99.90;;;;;;5056327;28;20048;-62
2022/08/23 04:58:37;;;;;;;9.52;8.10;;;13.30;99.90;;;;;;5060840;28;20037;-62
2022/08/23 05:01:06;;;;;;;11.60;8.10;;;13.30;99.90;;;;;;5064698;28;20044;-62
2022/08/23 05:03:33;;;;;;;10.80;7.63;;;13.30;99.90;;;;;;5062473;28;20052;-61
2022/08/23 05:05:59;;;;;;;9.18;7.50;;;13.40;99.90;;;;;;5065152;28;20551;-62
2022/08/23 05:08:25;;;;;;;10.93;8.15;;;13.40;99.90;;;;;;5058546;28;20101;-61
2022/08/23 05:10:50;;;;;;;10.98;8.18;;;13.40;99.90;;;;;;5064044;28;20173;-62
2022/08/23 05:13:16;;;;;;;9.43;7.15;;;13.40;99.90;;;;;;5069416;28;20041;-62
2022/08/23 05:15:43;;;;;;;13.52;8.60;;;13.50;99.90;;;;;;5061043;28;20028;-61
2022/08/23 05:18:09;;;;;;;11.00;8.73;;;13.50;99.90;;;;;;5062818;28;20138;-62
2022/08/23 05:20:35;;;;;;;12.27;8.18;;;13.60;99.90;;;;;;5029400;28;20051;-62
2022/08/23 05:23:01;;;;;;;13.30;8.48;;;13.60;99.90;;;;;;5052092;28;20033;-62
2022/08/23 05:25:48;;;;;;;10.88;8.45;;;13.60;99.90;;;;;;5029236;28;20116;-62
2022/08/23 05:28:13;;;;;;;14.55;10.35;;;13.70;99.90;;;;;;5065474;28;20044;-62
2022/08/23 05:30:39;;;;;;;16.65;10.77;;;13.80;99.90;;;;;;5062345;28;20037;-61
2022/08/23 05:33:04;;;;;;;17.00;12.30;;;13.90;99.90;;;;;;5064032;28;20043;-62
2022/08/23 05:35:30;;;;;;;19.10;11.85;;;14.00;99.90;;;;;;5057351;28;20393;-62
2022/08/23 05:37:59;;;;;;;15.18;10.93;;;14.10;99.90;;;;;;5049629;28;20103;-62
2022/08/23 05:40:25;;;;;;;14.65;11.35;;;14.10;99.90;;;;;;5054823;28;20044;-60
2022/08/23 05:42:51;;;;;;;17.35;13.88;;;14.30;99.90;;;;;;5060156;28;20452;-62
2022/08/23 05:45:16;;;;;;;21.55;14.40;;;14.40;99.90;;;;;;5049119;28;20138;-62
2022/08/23 05:47:42;;;;;;;22.65;15.82;;;14.50;99.90;;;;;;5057861;28;20489;-62
2022/08/23 05:50:08;;;;;;;27.25;19.02;;;14.70;99.90;;;;;;5061779;28;20515;-62
2022/08/23 05:52:33;;;;;;;24.02;17.35;;;14.80;99.90;;;;;;5064385;28;20461;-62
2022/08/23 05:54:59;;;;;;;27.45;20.88;;;14.90;99.90;;;;;;5062527;28;20032;-62
2022/08/23 05:57:25;;;;;;;27.02;21.23;;;15.10;99.90;;;;;;5055893;28;20045;-62
2022/08/23 05:59:50;;;;;;;24.92;20.10;;;15.30;99.90;;;;;;5051966;28;20052;-61
2022/08/23 06:02:16;;;;;;;24.58;20.10;;;15.40;99.90;;;;;;5045897;28;20133;-62
2022/08/23 06:04:41;;;;;;;25.20;19.45;;;15.50;99.90;;;;;;5058323;28;20484;-62
2022/08/23 06:07:08;;;;;;;25.63;17.65;;;15.50;99.90;;;;;;5054883;28;20041;-61
2022/08/23 06:09:34;;;;;;;23.88;17.73;;;15.60;99.90;;;;;;5066860;28;20051;-62
2022/08/23 06:12:00;;;;;;;22.80;18.15;;;15.80;99.90;;;;;;5056652;28;20458;-61
2022/08/23 06:14:26;;;;;;;21.42;17.92;;;15.90;99.90;;;;;;5035004;28;20036;-62
2022/08/23 06:16:52;;;;;;;26.52;19.35;;;16.00;99.90;;;;;;5063766;28;20377;-62
2022/08/23 06:19:17;;;;;;;19.60;16.65;;;16.30;99.90;;;;;;5062957;28;20040;-62
2022/08/23 06:21:43;;;;;;;20.80;17.30;;;16.50;99.90;;;;;;5065630;28;20036;-62
2022/08/23 06:24:09;;;;;;;20.58;16.30;;;16.70;99.90;;;;;;5058775;28;20043;-62
2022/08/23 06:26:37;;;;;;;17.38;15.52;;;16.90;99.90;;;;;;5058641;28;20055;-62
2022/08/23 06:29:06;;;;;;;22.33;15.85;;;17.10;99.90;;;;;;5056306;28;20047;-62
2022/08/23 06:31:44;;;;;;;17.88;14.32;;;17.40;99.90;;;;;;5059780;28;20550;-61
2022/08/23 06:34:20;;;;;;;17.38;14.20;;;17.60;99.90;;;;;;5056777;28;20036;-62
2022/08/23 06:36:52;;;;;;;16.80;14.98;;;17.80;99.90;;;;;;5057712;28;20248;-62
2022/08/23 06:39:21;;;;;;;16.95;13.07;;;18.10;99.90;;;;;;5057444;28;20123;-62
2022/08/23 06:41:49;;;;;;;15.38;12.82;;;18.20;99.90;;;;;;5060934;28;20055;-62
2022/08/23 06:44:18;;;;;;;14.82;12.82;;;18.50;99.90;;;;;;5062119;28;20056;-62
2022/08/23 06:46:46;;;;;;;16.20;12.10;;;18.70;99.90;;;;;;5066418;28;20047;-62
2022/08/23 06:49:12;;;;;;;11.98;10.68;;;18.90;99.90;;;;;;5045911;28;20412;-62
2022/08/23 06:51:59;;;;;;;12.30;10.98;;;19.00;99.90;;;;;;5066615;28;20041;-62
2022/08/23 06:54:28;;;;;;;14.63;10.80;;;19.30;99.90;;;;;;5045085;28;20083;-62
2022/08/23 06:56:53;;;;;;;13.07;10.38;;;19.50;99.90;;;;;;5062766;28;20115;-62
2022/08/23 06:59:20;;;;;;;15.27;9.85;;;19.70;99.90;;;;;;5059164;28;20595;-62
2022/08/23 07:01:52;;;;;;;12.13;9.75;;;20.00;99.90;;;;;;5069464;28;20037;-62
2022/08/23 07:04:26;;;;;;;9.65;8.77;;;20.20;99.90;;;;;;5061428;28;20052;-63
2022/08/23 07:06:51;;;;;;;10.23;9.23;;;20.40;99.90;;;;;;5064257;28;20045;-63
2022/08/23 07:09:17;;;;;;;12.80;9.25;;;20.60;99.90;;;;;;5049405;28;20042;-63
2022/08/23 07:11:43;;;;;;;10.50;9.07;;;20.80;99.90;;;;;;5067614;28;20028;-63
2022/08/23 07:14:12;;;;;;;9.85;8.98;;;21.00;99.90;;;;;;5053614;28;20048;-62
2022/08/23 07:16:40;;;;;;;9.60;8.70;;;21.20;99.90;;;;;;5058617;28;20041;-63
2022/08/23 07:19:07;;;;;;;11.13;8.60;;;21.40;99.90;;;;;;5058834;28;20037;-63
2022/08/23 07:21:34;;;;;;;8.73;7.88;;;21.60;99.90;;;;;;5039119;28;20499;-64
2022/08/23 07:23:59;;;;;;;9.98;8.13;;;21.80;99.90;;;;;;5062715;28;20040;-63
2022/08/23 07:26:25;;;;;;;11.48;8.27;;;22.00;99.20;;;;;;5042480;28;20049;-63
2022/08/23 07:28:51;;;;;;;9.27;7.97;;;22.30;98.20;;;;;;5068671;28;20032;-63
2022/08/23 07:31:21;;;;;;;8.10;7.10;;;22.60;97.80;;;;;;5068806;28;20106;-63
2022/08/23 07:33:47;;;;;;;8.52;7.68;;;22.90;96.30;;;;;;5073553;28;20115;-63
2022/08/23 07:36:15;;;;;;;8.35;7.53;;;23.00;95.70;;;;;;5072296;28;20032;-63
2022/08/23 07:38:42;;;;;;;9.82;7.43;;;23.20;95.70;;;;;;5072163;28;20040;-63
2022/08/23 07:41:07;;;;;;;9.82;7.13;;;23.40;94.10;;;;;;5055429;28;20051;-62
2022/08/23 07:43:34;;;;;;;8.10;7.30;;;23.40;93.60;;;;;;5061090;28;20532;-63
2022/08/23 07:46:00;;;;;;;8.70;6.97;;;23.30;92.80;;;;;;5061115;28;20057;-63
2022/08/23 07:48:25;;;;;;;8.60;7.68;;;23.20;92.20;;;;;;5073405;28;20039;-63
2022/08/23 07:50:57;;;;;;;9.20;7.07;;;23.30;92.30;;;;;;5066415;28;20557;-63
2022/08/23 07:53:23;;;;;;;8.05;7.25;;;23.50;91.40;;;;;;5065267;28;20041;-63
2022/08/23 07:55:49;;;;;;;9.90;7.38;;;23.80;91.40;;;;;;5072411;28;20055;-63
2022/08/23 07:58:15;;;;;;;10.30;6.97;;;23.90;91.30;;;;;;5054593;28;20697;-65
2022/08/23 08:00:41;;;;;;;9.45;7.72;;;24.30;91.00;;;;;;5060680;28;20028;-64
2022/08/23 08:03:06;;;;;;;10.43;7.47;;;24.60;90.30;;;;;;5070908;28;20119;-64
2022/08/23 08:05:33;;;;;;;7.70;6.93;;;24.80;89.50;;;;;;5070142;28;20039;-64
2022/08/23 08:07:58;;;;;;;8.80;6.93;;;24.90;86.90;;;;;;5072546;28;20040;-63
2022/08/23 08:10:24;;;;;;;8.05;6.15;;;24.90;86.20;;;;;;5073568;28;20041;-64
2022/08/23 08:12:50;;;;;;;9.70;6.78;;;25.10;85.10;;;;;;5073362;28;20032;-64
2022/08/23 08:15:16;;;;;;;7.57;6.65;;;25.20;84.10;;;;;;5038477;28;20119;-62
2022/08/23 08:17:42;;;;;;;7.25;6.40;;;25.40;82.60;;;;;;5045320;28;20243;-62
2022/08/23 08:20:08;;;;;;;7.20;6.50;;;25.50;81.40;;;;;;5066360;28;20041;-63
2022/08/23 08:22:34;;;;;;;12.73;6.40;;;25.80;80.00;;;;;;5072162;28;20040;-64
2022/08/23 08:25:00;;;;;;;8.43;5.90;;;26.00;78.70;;;;;;5073014;28;20079;-66
2022/08/23 08:27:26;;;;;;;7.57;5.97;;;26.20;78.30;;;;;;5044105;28;20385;-64
2022/08/23 08:29:51;;;;;;;7.18;5.30;;;26.40;76.10;;;;;;5062562;28;20056;-65
2022/08/23 08:32:17;;;;;;;6.32;5.18;;;26.60;73.90;;;;;;5072401;28;20041;-64
2022/08/23 08:34:42;;;;;;;6.68;4.97;;;26.70;72.60;;;;;;5070989;28;20032;-64
2022/08/23 08:37:08;;;;;;;8.32;5.25;;;26.50;71.80;;;;;;5063761;28;20756;-64
2022/08/23 08:39:33;;;;;;;8.95;5.20;;;26.60;71.50;;;;;;5069810;28;21721;-63
2022/08/23 08:42:09;;;;;;;8.07;5.57;;;27.00;70.90;;;;;;5066284;28;20040;-64
2022/08/23 08:45:04;;;;;;;6.07;4.95;;;27.40;68.50;;;;;;5068077;28;20056;-65
2022/08/23 08:47:48;;;;;;;5.22;4.72;;;28.00;67.90;;;;;;5054402;28;20052;-65
2022/08/23 08:50:37;;;;;;;6.95;4.70;;;28.60;65.10;;;;;;5066736;28;20083;-64
2022/08/23 08:53:10;;;;;;;4.95;4.45;;;29.00;60.50;;;;;;5065224;28;20127;-64
2022/08/23 08:55:48;;;;;;;8.00;5.00;;;29.30;59.80;;;;;;5072288;28;20041;-64
2022/08/23 08:58:20;;;;;;;7.72;4.90;;;29.00;60.30;;;;;;5071489;28;20537;-64
2022/08/23 09:00:46;;;;;;;6.15;4.85;;;28.40;60.30;;;;;;5063614;28;20040;-64
2022/08/23 09:03:15;;;;;;;5.43;4.60;;;28.30;60.60;;;;;;5039736;28;20098;-64
2022/08/23 09:05:56;;;;;;;7.65;4.90;;;28.20;60.70;;;;;;5070071;28;20036;-64
2022/08/23 09:08:33;;;;;;;5.10;4.63;;;28.50;60.80;;;;;;5034626;28;20043;-63
2022/08/23 09:11:07;;;;;;;6.22;4.78;;;29.20;60.10;;;;;;5065106;28;20063;-63
2022/08/23 09:13:46;;;;;;;8.63;4.22;;;29.50;59.00;;;;;;5072407;28;20044;-63
2022/08/23 09:16:23;;;;;;;7.50;5.13;;;29.70;58.80;;;;;;5054904;28;20068;-64
2022/08/23 09:18:50;;;;;;;7.88;4.00;;;29.70;56.20;;;;;;5063479;28;20739;-64
2022/08/23 09:21:17;;;;;;;6.57;4.03;;;29.40;57.70;;;;;;5071233;28;20076;-64
2022/08/23 09:23:45;;;;;;;6.68;4.28;;;29.20;58.20;;;;;;5056914;28;20041;-63
2022/08/23 09:26:28;;;;;;;6.65;3.90;;;28.80;56.80;;;;;;5071369;28;20075;-63
2022/08/23 09:29:16;;;;;;;3.60;3.22;;;28.60;54.70;;;;;;5056411;28;20090;-64
2022/08/23 09:31:52;;;;;;;7.05;4.25;;;28.50;56.70;;;;;;5060720;28;20357;-63
2022/08/23 09:34:35;;;;;;;6.18;4.20;;;28.40;57.00;;;;;;5070207;28;20457;-63
2022/08/23 09:37:08;;;;;;;7.25;4.10;;;28.40;57.30;;;;;;5064953;28;20040;-64
2022/08/23 09:39:40;;;;;;;6.75;3.75;;;28.60;57.20;;;;;;5054583;28;20059;-65
2022/08/23 09:42:28;;;;;;;7.28;4.10;;;29.00;56.90;;;;;;5072388;28;20056;-65
2022/08/23 09:44:55;;;;;;;5.10;3.70;;;29.10;55.20;;;;;;5070511;28;20811;-64
2022/08/23 09:47:35;;;;;;;6.05;3.20;;;29.00;55.40;;;;;;5059999;28;20078;-63
2022/08/23 09:50:22;;;;;;;6.68;3.78;;;28.90;55.90;;;;;;5050134;28;20409;-65
2022/08/23 09:52:48;;;;;;;5.80;3.90;;;28.80;55.80;;;;;;5069104;28;20066;-64
2022/08/23 09:55:29;;;;;;;6.32;3.78;;;28.80;56.00;;;;;;5068657;28;20043;-64
2022/08/23 09:57:55;;;;;;;7.32;3.85;;;28.50;56.00;;;;;;5071477;28;20047;-65
2022/08/23 10:00:28;;;;;;;6.60;4.00;;;28.50;56.50;;;;;;5070804;28;20036;-66
2022/08/23 10:03:14;;;;;;;6.90;3.45;;;28.40;54.70;;;;;;5055582;28;20036;-65
2022/08/23 10:05:40;;;;;;;6.60;3.50;;;28.90;55.10;;;;;;5067078;28;20040;-66
2022/08/23 10:08:06;;;;;;;4.22;3.83;;;29.80;53.30;;;;;;5054524;28;20400;-66
2022/08/23 10:10:45;;;;;;;6.53;3.35;;;30.10;51.20;;;;;;5069560;28;20045;-64
2022/08/23 10:13:12;;;;;;;7.80;3.78;;;30.50;51.10;;;;;;5062073;28;20349;-65
2022/08/23 10:15:51;;;;;;;5.20;3.45;;;30.20;51.80;;;;;;5070659;28;20036;-65
2022/08/23 10:18:50;;;;;;;6.55;3.40;;;30.00;50.80;;;;;;5056408;28;20043;-64
2022/08/23 10:21:22;;;;;;;10.15;3.72;;;29.70;51.70;;;;;;5057490;28;20044;-63
2022/08/23 10:24:03;;;;;;;6.45;3.05;;;29.30;51.80;;;;;;5071076;28;20079;-64
2022/08/23 10:26:34;;;;;;;5.82;3.53;;;29.10;52.40;;;;;;5066369;28;20029;-65
2022/08/23 10:29:40;;;;;;;4.88;2.85;;;28.90;52.20;;;;;;5064757;28;20521;-64
2022/08/23 10:32:14;;;;;;;5.90;3.42;;;28.70;52.60;;;;;;5044458;28;20094;-63
2022/08/23 10:35:13;;;;;;;6.72;3.95;;;28.60;52.90;;;;;;5066043;28;20041;-64
2022/08/23 10:37:47;;;;;;;6.65;3.10;;;28.40;54.30;;;;;;5063530;28;20032;-64
2022/08/23 10:40:22;;;;;;;4.90;3.10;;;28.50;53.70;;;;;;5072101;28;20131;-64
2022/08/23 10:43:24;;;;;;;4.78;3.10;;;28.40;53.70;;;;;;5051832;28;20048;-63
2022/08/23 10:45:51;;;;;;;6.07;4.03;;;28.40;50.60;;;;;;5050375;28;20056;-63
2022/08/23 10:48:30;;;;;;;8.45;4.20;;;28.20;52.60;;;;;;5069472;28;20036;-64
2022/08/23 10:50:59;;;;;;;5.72;3.20;;;28.10;52.40;;;;;;5061304;28;20149;-64
2022/08/23 10:53:36;;;;;;;5.45;4.03;;;28.20;52.90;;;;;;5059529;28;20036;-65
2022/08/23 10:56:03;;;;;;;5.00;3.10;;;28.10;52.90;;;;;;5072041;28;20040;-65
2022/08/23 10:58:50;;;;;;;5.85;3.53;;;28.10;53.10;;;;;;5057778;28;20049;-64
2022/08/23 11:01:19;;;;;;;5.70;3.50;;;28.00;53.80;;;;;;5074627;28;20036;-63
2022/08/23 11:04:03;;;;;;;6.53;3.63;;;28.00;53.90;;;;;;5072581;28;20040;-65
2022/08/23 11:06:35;;;;;;;8.25;2.90;;;28.00;53.60;;;;;;5059492;28;20396;-66
2022/08/23 11:09:05;;;;;;;4.53;2.90;;;28.10;53.20;;;;;;5053006;28;20397;-64
2022/08/23 11:11:42;;;;;;;4.80;3.80;;;28.20;53.00;;;;;;5074647;28;20445;-63
2022/08/23 11:14:24;;;;;;;6.95;4.10;;;28.30;53.40;;;;;;5054309;28;20063;-64
2022/08/23 11:16:57;;;;;;;5.20;3.70;;;28.40;53.20;;;;;;5057305;28;20116;-64
2022/08/23 11:19:45;;;;;;;6.20;3.22;;;28.40;53.50;;;;;;5064415;28;20043;-65
2022/08/23 11:22:31;;;;;;;5.47;2.92;;;28.30;53.10;;;;;;5058644;28;20037;-66
2022/08/23 11:25:15;;;;;;;5.57;3.10;;;28.30;51.70;;;;;;5065466;28;20076;-64
2022/08/23 11:27:43;;;;;;;5.57;2.85;;;28.30;52.80;;;;;;5064312;28;20048;-65
2022/08/23 11:30:33;;;;;;;6.18;3.45;;;28.40;52.40;;;;;;5060554;28;20483;-66
2022/08/23 11:33:09;;;;;;;5.90;3.45;;;28.50;52.60;;;;;;5063728;28;20133;-64
2022/08/23 11:35:43;;;;;;;5.47;3.30;;;28.60;52.40;;;;;;5054709;28;20041;-63
2022/08/23 11:38:09;;;;;;;5.22;3.00;;;28.60;51.60;;;;;;5072786;28;20515;-64
2022/08/23 11:40:39;;;;;;;4.68;2.72;;;28.50;51.60;;;;;;5072667;28;20060;-66
2022/08/23 11:43:11;;;;;;;5.50;3.10;;;28.50;50.40;;;;;;5073685;28;20396;-64
2022/08/23 11:45:45;;;;;;;3.97;2.72;;;28.60;50.30;;;;;;5072184;28;20061;-65
2022/08/23 11:48:31;;;;;;;4.55;3.00;;;28.70;51.00;;;;;;5059237;28;20049;-67
2022/08/23 11:51:24;;;;;;;10.90;3.38;;;28.80;50.70;;;;;;5062086;28;20033;-65
2022/08/23 11:53:52;;;;;;;6.07;2.97;;;28.90;50.80;;;;;;5072353;28;20051;-67
2022/08/23 11:56:36;;;;;;;6.72;3.55;;;28.90;51.00;;;;;;5074197;28;20484;-63
2022/08/23 11:59:17;;;;;;;8.75;3.45;;;29.10;50.40;;;;;;5067653;28;20073;-65
2022/08/23 12:01:45;;;;;;;3.85;3.10;;;29.20;49.30;;;;;;5055512;28;20087;-64
2022/08/23 12:04:25;;;;;;;5.70;2.90;;;29.20;50.00;;;;;;5072140;28;20044;-64
2022/08/23 12:06:56;;;;;;;4.68;2.70;;;29.20;49.20;;;;;;5072643;28;20115;-64
2022/08/23 12:09:22;;;;;;;4.32;3.03;;;29.20;49.40;;;;;;5073144;28;20546;-64
2022/08/23 12:12:10;;;;;;;6.35;3.15;;;29.30;49.30;;;;;;5065774;28;20029;-64
2022/08/23 12:14:49;;;;;;;5.15;2.70;;;29.30;49.00;;;;;;5052557;28;20037;-64
2022/08/23 12:17:15;;;;;;;4.60;3.30;;;29.40;48.20;;;;;;5059622;28;20067;-67
2022/08/23 12:19:46;;;;;;;5.07;3.15;;;29.40;49.20;;;;;;5063640;28;20076;-65
2022/08/23 12:22:18;;;;;;;3.95;2.63;;;29.50;49.00;;;;;;5060542;28;20040;-64
2022/08/23 12:24:50;;;;;;;3.30;2.60;;;29.80;48.30;;;;;;5072306;28;20041;-64
2022/08/23 12:27:35;;;;;;;4.60;2.83;;;30.00;48.10;;;;;;5064657;28;20048;-65
2022/08/23 12:30:08;;;;;;;5.22;3.28;;;29.90;47.90;;;;;;5060080;28;20049;-65
2022/08/23 12:32:56;;;;;;;5.25;3.03;;;30.00;47.50;;;;;;5056265;28;20120;-67
2022/08/23 12:35:37;;;;;;;4.30;2.70;;;29.90;47.60;;;;;;5053182;28;20068;-66
2022/08/23 12:38:11;;;;;;;4.13;2.58;;;30.00;47.10;;;;;;5073469;28;20046;-64
2022/08/23 12:40:40;;;;;;;4.30;2.95;;;29.90;47.60;;;;;;5056582;28;20095;-66
2022/08/23 12:43:21;;;;;;;3.93;2.70;;;29.80;47.50;;;;;;5068823;28;20044;-65
2022/08/23 12:45:53;;;;;;;5.03;2.53;;;29.80;46.70;;;;;;5070868;28;20435;-64
2022/08/23 12:48:26;;;;;;;4.75;3.03;;;30.10;47.40;;;;;;5054268;28;20044;-65
2022/08/23 12:50:55;;;;;;;3.72;2.90;;;30.40;46.70;;;;;;5070150;28;20116;-65
2022/08/23 12:53:47;;;;;;;5.97;3.13;;;30.80;46.20;;;;;;5071727;28;20036;-65
2022/08/23 12:56:16;;;;;;;4.03;2.80;;;31.10;46.10;;;;;;5059378;28;20060;-66
2022/08/23 12:58:46;;;;;;;8.35;2.95;;;31.20;45.90;;;;;;5072739;28;20050;-64
2022/08/23 13:01:43;;;;;;;4.25;2.90;;;31.50;44.90;;;;;;5069741;28;20095;-67
2022/08/23 13:04:13;;;;;;;5.93;2.67;;;32.20;44.50;;;;;;5034988;28;20064;-67
2022/08/23 13:06:49;;;;;;;5.83;2.77;;;32.90;43.30;;;;;;5056978;28;20037;-66